sensor_id;sensor_type;location;lat;lon;timestamp;P1;durP1;ratioP1;P2;durP2;ratioP2
47555;SDS011;33291;46.222;26.460;2023-02-28T00:01:30;3.05;;;2.35;;
47555;SDS011;33291;46.222;26.460;2023-02-28T00:03:55;3.90;;;2.63;;
47555;SDS011;33291;46.222;26.460;2023-02-28T00:06:21;3.47;;;2.10;;
47555;SDS011;33291;46.222;26.460;2023-02-28T00:08:47;3.65;;;2.25;;
47555;SDS011;33291;46.222;26.460;2023-02-28T00:11:13;5.20;;;2.47;;
47555;SDS011;33291;46.222;26.460;2023-02-28T00:13:41;3.92;;;2.25;;
47555;SDS011;33291;46.222;26.460;2023-02-28T00:16:12;3.78;;;2.17;;
47555;SDS011;33291;46.222;26.460;2023-02-28T00:18:40;5.15;;;2.85;;
47555;SDS011;33291;46.222;26.460;2023-02-28T00:21:06;5.05;;;2.72;;
47555;SDS011;33291;46.222;26.460;2023-02-28T00:23:32;3.90;;;2.53;;
47555;SDS011;33291;46.222;26.460;2023-02-28T00:25:58;5.57;;;3.15;;
47555;SDS011;33291;46.222;26.460;2023-02-28T00:28:24;4.40;;;2.70;;
47555;SDS011;33291;46.222;26.460;2023-02-28T00:30:49;3.75;;;2.38;;
47555;SDS011;33291;46.222;26.460;2023-02-28T00:33:15;3.63;;;2.40;;
47555;SDS011;33291;46.222;26.460;2023-02-28T00:35:41;4.57;;;2.70;;
47555;SDS011;33291;46.222;26.460;2023-02-28T00:38:06;3.67;;;2.63;;
47555;SDS011;33291;46.222;26.460;2023-02-28T00:40:32;4.07;;;2.67;;
47555;SDS011;33291;46.222;26.460;2023-02-28T00:42:58;7.72;;;2.42;;
47555;SDS011;33291;46.222;26.460;2023-02-28T00:45:23;3.63;;;2.50;;
47555;SDS011;33291;46.222;26.460;2023-02-28T00:47:49;3.88;;;2.95;;
47555;SDS011;33291;46.222;26.460;2023-02-28T00:50:18;8.60;;;4.00;;
47555;SDS011;33291;46.222;26.460;2023-02-28T00:52:45;5.32;;;3.28;;
47555;SDS011;33291;46.222;26.460;2023-02-28T00:55:11;7.18;;;4.28;;
47555;SDS011;33291;46.222;26.460;2023-02-28T00:57:36;8.18;;;4.55;;
47555;SDS011;33291;46.222;26.460;2023-02-28T01:00:02;6.82;;;4.30;;
47555;SDS011;33291;46.222;26.460;2023-02-28T01:02:29;7.80;;;4.53;;
47555;SDS011;33291;46.222;26.460;2023-02-28T01:04:54;6.95;;;4.82;;
47555;SDS011;33291;46.222;26.460;2023-02-28T01:07:21;8.80;;;4.97;;
47555;SDS011;33291;46.222;26.460;2023-02-28T01:09:47;7.97;;;5.03;;
47555;SDS011;33291;46.222;26.460;2023-02-28T01:12:13;8.95;;;5.32;;
47555;SDS011;33291;46.222;26.460;2023-02-28T01:14:38;10.18;;;5.18;;
47555;SDS011;33291;46.222;26.460;2023-02-28T01:17:04;6.93;;;4.47;;
47555;SDS011;33291;46.222;26.460;2023-02-28T01:19:29;8.95;;;5.20;;
47555;SDS011;33291;46.222;26.460;2023-02-28T01:21:55;9.30;;;5.47;;
47555;SDS011;33291;46.222;26.460;2023-02-28T01:24:20;8.27;;;4.80;;
47555;SDS011;33291;46.222;26.460;2023-02-28T01:26:46;6.90;;;4.75;;
47555;SDS011;33291;46.222;26.460;2023-02-28T01:29:11;6.50;;;4.15;;
47555;SDS011;33291;46.222;26.460;2023-02-28T01:31:36;7.13;;;5.18;;
47555;SDS011;33291;46.222;26.460;2023-02-28T01:34:02;8.13;;;5.05;;
47555;SDS011;33291;46.222;26.460;2023-02-28T01:36:27;5.95;;;4.13;;
47555;SDS011;33291;46.222;26.460;2023-02-28T01:38:53;6.82;;;4.63;;
47555;SDS011;33291;46.222;26.460;2023-02-28T01:41:20;7.28;;;4.72;;
47555;SDS011;33291;46.222;26.460;2023-02-28T01:46:14;8.88;;;4.93;;
47555;SDS011;33291;46.222;26.460;2023-02-28T01:48:41;7.25;;;4.40;;
47555;SDS011;33291;46.222;26.460;2023-02-28T01:51:13;7.10;;;4.80;;
47555;SDS011;33291;46.222;26.460;2023-02-28T01:53:48;7.90;;;4.53;;
47555;SDS011;33291;46.222;26.460;2023-02-28T01:56:18;8.38;;;4.82;;
47555;SDS011;33291;46.222;26.460;2023-02-28T01:58:48;7.38;;;5.20;;
47555;SDS011;33291;46.222;26.460;2023-02-28T02:01:16;8.02;;;5.28;;
47555;SDS011;33291;46.222;26.460;2023-02-28T02:03:57;6.85;;;4.68;;
47555;SDS011;33291;46.222;26.460;2023-02-28T02:06:26;6.65;;;4.40;;
47555;SDS011;33291;46.222;26.460;2023-02-28T02:08:55;10.52;;;6.00;;
47555;SDS011;33291;46.222;26.460;2023-02-28T02:11:21;6.47;;;4.30;;
47555;SDS011;33291;46.222;26.460;2023-02-28T02:16:47;6.22;;;4.15;;
47555;SDS011;33291;46.222;26.460;2023-02-28T02:22:08;7.07;;;4.45;;
47555;SDS011;33291;46.222;26.460;2023-02-28T02:25:01;5.20;;;3.88;;
47555;SDS011;33291;46.222;26.460;2023-02-28T02:35:54;8.75;;;4.55;;
47555;SDS011;33291;46.222;26.460;2023-02-28T02:41:43;7.97;;;4.38;;
47555;SDS011;33291;46.222;26.460;2023-02-28T02:44:15;7.53;;;4.43;;
47555;SDS011;33291;46.222;26.460;2023-02-28T02:46:47;9.25;;;5.32;;
47555;SDS011;33291;46.222;26.460;2023-02-28T02:49:16;6.55;;;4.38;;
47555;SDS011;33291;46.222;26.460;2023-02-28T02:51:54;7.75;;;4.70;;
47555;SDS011;33291;46.222;26.460;2023-02-28T02:54:23;7.90;;;5.10;;
47555;SDS011;33291;46.222;26.460;2023-02-28T02:59:26;7.15;;;4.80;;
47555;SDS011;33291;46.222;26.460;2023-02-28T03:01:57;9.55;;;5.63;;
47555;SDS011;33291;46.222;26.460;2023-02-28T03:04:25;8.50;;;5.65;;
47555;SDS011;33291;46.222;26.460;2023-02-28T03:06:53;7.97;;;5.20;;
47555;SDS011;33291;46.222;26.460;2023-02-28T03:09:22;8.27;;;5.57;;
47555;SDS011;33291;46.222;26.460;2023-02-28T03:11:50;9.63;;;5.65;;
47555;SDS011;33291;46.222;26.460;2023-02-28T03:14:25;8.13;;;5.15;;
47555;SDS011;33291;46.222;26.460;2023-02-28T03:30:14;10.20;;;6.20;;
47555;SDS011;33291;46.222;26.460;2023-02-28T03:33:06;8.93;;;5.70;;
47555;SDS011;33291;46.222;26.460;2023-02-28T03:35:40;10.50;;;6.60;;
47555;SDS011;33291;46.222;26.460;2023-02-28T03:38:18;12.50;;;6.85;;
47555;SDS011;33291;46.222;26.460;2023-02-28T03:40:55;10.70;;;6.82;;
47555;SDS011;33291;46.222;26.460;2023-02-28T03:43:35;12.05;;;7.82;;
47555;SDS011;33291;46.222;26.460;2023-02-28T03:46:06;13.55;;;8.18;;
47555;SDS011;33291;46.222;26.460;2023-02-28T03:48:38;12.93;;;7.18;;
47555;SDS011;33291;46.222;26.460;2023-02-28T03:51:08;13.90;;;6.50;;
47555;SDS011;33291;46.222;26.460;2023-02-28T03:53:50;12.38;;;6.43;;
47555;SDS011;33291;46.222;26.460;2023-02-28T03:56:19;9.85;;;6.30;;
47555;SDS011;33291;46.222;26.460;2023-02-28T04:01:53;11.65;;;6.72;;
47555;SDS011;33291;46.222;26.460;2023-02-28T04:04:20;11.52;;;7.03;;
47555;SDS011;33291;46.222;26.460;2023-02-28T04:06:46;12.60;;;7.07;;
47555;SDS011;33291;46.222;26.460;2023-02-28T04:09:15;10.23;;;6.57;;
47555;SDS011;33291;46.222;26.460;2023-02-28T04:11:50;15.05;;;7.22;;
47555;SDS011;33291;46.222;26.460;2023-02-28T04:14:17;14.15;;;7.55;;
47555;SDS011;33291;46.222;26.460;2023-02-28T04:16:43;13.60;;;7.45;;
47555;SDS011;33291;46.222;26.460;2023-02-28T04:19:10;12.30;;;7.32;;
47555;SDS011;33291;46.222;26.460;2023-02-28T04:21:37;10.85;;;6.47;;
47555;SDS011;33291;46.222;26.460;2023-02-28T04:24:05;12.48;;;7.40;;
47555;SDS011;33291;46.222;26.460;2023-02-28T04:26:33;11.38;;;6.82;;
47555;SDS011;33291;46.222;26.460;2023-02-28T04:29:00;13.40;;;7.35;;
47555;SDS011;33291;46.222;26.460;2023-02-28T04:31:28;9.98;;;6.43;;
47555;SDS011;33291;46.222;26.460;2023-02-28T04:33:53;10.05;;;6.50;;
47555;SDS011;33291;46.222;26.460;2023-02-28T04:36:19;12.82;;;6.88;;
47555;SDS011;33291;46.222;26.460;2023-02-28T04:38:44;12.98;;;6.88;;
47555;SDS011;33291;46.222;26.460;2023-02-28T04:41:11;13.23;;;6.80;;
47555;SDS011;33291;46.222;26.460;2023-02-28T04:43:37;10.63;;;6.50;;
47555;SDS011;33291;46.222;26.460;2023-02-28T04:46:03;12.00;;;7.65;;
47555;SDS011;33291;46.222;26.460;2023-02-28T04:48:31;9.23;;;6.35;;
47555;SDS011;33291;46.222;26.460;2023-02-28T04:51:00;14.20;;;8.77;;
47555;SDS011;33291;46.222;26.460;2023-02-28T04:53:27;11.35;;;6.65;;
47555;SDS011;33291;46.222;26.460;2023-02-28T04:55:54;12.50;;;7.20;;
47555;SDS011;33291;46.222;26.460;2023-02-28T04:58:19;10.20;;;6.63;;
47555;SDS011;33291;46.222;26.460;2023-02-28T05:00:48;12.60;;;7.47;;
47555;SDS011;33291;46.222;26.460;2023-02-28T05:03:13;15.13;;;7.97;;
47555;SDS011;33291;46.222;26.460;2023-02-28T05:05:39;11.55;;;7.50;;
47555;SDS011;33291;46.222;26.460;2023-02-28T05:08:04;14.50;;;8.13;;
47555;SDS011;33291;46.222;26.460;2023-02-28T05:10:30;13.95;;;8.27;;
47555;SDS011;33291;46.222;26.460;2023-02-28T05:12:56;13.70;;;7.18;;
47555;SDS011;33291;46.222;26.460;2023-02-28T05:15:22;12.18;;;7.68;;
47555;SDS011;33291;46.222;26.460;2023-02-28T05:17:47;16.00;;;8.13;;
47555;SDS011;33291;46.222;26.460;2023-02-28T05:20:13;15.57;;;8.80;;
47555;SDS011;33291;46.222;26.460;2023-02-28T05:22:39;14.75;;;8.65;;
47555;SDS011;33291;46.222;26.460;2023-02-28T05:25:05;16.17;;;8.57;;
47555;SDS011;33291;46.222;26.460;2023-02-28T05:27:31;17.80;;;10.10;;
47555;SDS011;33291;46.222;26.460;2023-02-28T05:29:56;19.52;;;11.30;;
47555;SDS011;33291;46.222;26.460;2023-02-28T05:32:22;20.35;;;11.48;;
47555;SDS011;33291;46.222;26.460;2023-02-28T05:34:48;20.08;;;11.27;;
47555;SDS011;33291;46.222;26.460;2023-02-28T05:37:14;20.63;;;11.68;;
47555;SDS011;33291;46.222;26.460;2023-02-28T05:39:40;18.75;;;10.27;;
47555;SDS011;33291;46.222;26.460;2023-02-28T05:42:06;16.30;;;9.48;;
47555;SDS011;33291;46.222;26.460;2023-02-28T05:44:32;16.50;;;8.75;;
47555;SDS011;33291;46.222;26.460;2023-02-28T05:46:58;12.68;;;7.70;;
47555;SDS011;33291;46.222;26.460;2023-02-28T05:49:24;10.45;;;6.45;;
47555;SDS011;33291;46.222;26.460;2023-02-28T05:51:49;11.80;;;7.50;;
47555;SDS011;33291;46.222;26.460;2023-02-28T05:54:14;11.82;;;5.95;;
47555;SDS011;33291;46.222;26.460;2023-02-28T05:56:40;10.48;;;6.50;;
47555;SDS011;33291;46.222;26.460;2023-02-28T05:59:09;12.55;;;5.88;;
47555;SDS011;33291;46.222;26.460;2023-02-28T06:01:38;8.68;;;5.03;;
47555;SDS011;33291;46.222;26.460;2023-02-28T06:04:07;12.32;;;6.93;;
47555;SDS011;33291;46.222;26.460;2023-02-28T06:06:34;11.15;;;7.68;;
47555;SDS011;33291;46.222;26.460;2023-02-28T06:09:01;15.77;;;8.05;;
47555;SDS011;33291;46.222;26.460;2023-02-28T06:11:27;11.55;;;6.93;;
47555;SDS011;33291;46.222;26.460;2023-02-28T06:13:56;13.98;;;8.18;;
47555;SDS011;33291;46.222;26.460;2023-02-28T06:16:24;12.02;;;7.13;;
47555;SDS011;33291;46.222;26.460;2023-02-28T06:18:50;10.45;;;6.50;;
47555;SDS011;33291;46.222;26.460;2023-02-28T06:21:17;13.15;;;7.20;;
47555;SDS011;33291;46.222;26.460;2023-02-28T06:23:43;10.93;;;6.13;;
47555;SDS011;33291;46.222;26.460;2023-02-28T06:26:09;13.50;;;8.02;;
47555;SDS011;33291;46.222;26.460;2023-02-28T06:28:35;11.73;;;6.63;;
47555;SDS011;33291;46.222;26.460;2023-02-28T06:31:05;12.30;;;7.43;;
47555;SDS011;33291;46.222;26.460;2023-02-28T06:33:35;14.73;;;8.40;;
47555;SDS011;33291;46.222;26.460;2023-02-28T06:36:01;15.35;;;8.20;;
47555;SDS011;33291;46.222;26.460;2023-02-28T06:38:27;18.02;;;8.75;;
47555;SDS011;33291;46.222;26.460;2023-02-28T06:40:56;13.85;;;7.95;;
47555;SDS011;33291;46.222;26.460;2023-02-28T06:43:23;15.27;;;7.43;;
47555;SDS011;33291;46.222;26.460;2023-02-28T06:45:49;15.23;;;7.53;;
47555;SDS011;33291;46.222;26.460;2023-02-28T06:48:15;11.52;;;6.55;;
47555;SDS011;33291;46.222;26.460;2023-02-28T06:50:40;12.27;;;7.22;;
47555;SDS011;33291;46.222;26.460;2023-02-28T06:53:06;12.68;;;6.80;;
47555;SDS011;33291;46.222;26.460;2023-02-28T06:55:31;13.52;;;7.68;;
47555;SDS011;33291;46.222;26.460;2023-02-28T06:57:57;13.48;;;7.93;;
47555;SDS011;33291;46.222;26.460;2023-02-28T07:00:23;16.67;;;7.43;;
47555;SDS011;33291;46.222;26.460;2023-02-28T07:02:49;12.73;;;6.68;;
47555;SDS011;33291;46.222;26.460;2023-02-28T07:05:15;10.85;;;7.03;;
47555;SDS011;33291;46.222;26.460;2023-02-28T07:07:41;12.77;;;7.40;;
47555;SDS011;33291;46.222;26.460;2023-02-28T07:10:12;11.88;;;6.97;;
47555;SDS011;33291;46.222;26.460;2023-02-28T07:12:39;11.43;;;7.15;;
47555;SDS011;33291;46.222;26.460;2023-02-28T07:15:05;12.55;;;7.22;;
47555;SDS011;33291;46.222;26.460;2023-02-28T07:17:31;30.77;;;12.35;;
47555;SDS011;33291;46.222;26.460;2023-02-28T07:19:56;46.45;;;19.90;;
47555;SDS011;33291;46.222;26.460;2023-02-28T07:22:22;16.60;;;8.50;;
47555;SDS011;33291;46.222;26.460;2023-02-28T07:24:47;11.52;;;6.93;;
47555;SDS011;33291;46.222;26.460;2023-02-28T07:27:13;12.20;;;6.70;;
47555;SDS011;33291;46.222;26.460;2023-02-28T07:29:48;10.68;;;6.30;;
47555;SDS011;33291;46.222;26.460;2023-02-28T07:32:14;8.30;;;5.45;;
47555;SDS011;33291;46.222;26.460;2023-02-28T07:34:39;8.13;;;4.60;;
47555;SDS011;33291;46.222;26.460;2023-02-28T07:37:05;11.32;;;5.72;;
47555;SDS011;33291;46.222;26.460;2023-02-28T07:39:30;8.20;;;4.70;;
47555;SDS011;33291;46.222;26.460;2023-02-28T07:41:56;9.93;;;6.18;;
47555;SDS011;33291;46.222;26.460;2023-02-28T07:44:21;17.80;;;8.60;;
47555;SDS011;33291;46.222;26.460;2023-02-28T07:46:47;17.63;;;9.65;;
47555;SDS011;33291;46.222;26.460;2023-02-28T07:49:12;13.75;;;8.70;;
47555;SDS011;33291;46.222;26.460;2023-02-28T07:51:38;15.43;;;9.45;;
47555;SDS011;33291;46.222;26.460;2023-02-28T07:54:03;15.63;;;9.48;;
47555;SDS011;33291;46.222;26.460;2023-02-28T07:56:29;16.58;;;9.90;;
47555;SDS011;33291;46.222;26.460;2023-02-28T07:58:54;18.25;;;9.68;;
47555;SDS011;33291;46.222;26.460;2023-02-28T08:01:20;14.95;;;9.90;;
47555;SDS011;33291;46.222;26.460;2023-02-28T08:03:46;17.00;;;10.32;;
47555;SDS011;33291;46.222;26.460;2023-02-28T08:06:19;16.58;;;9.50;;
47555;SDS011;33291;46.222;26.460;2023-02-28T08:08:46;18.33;;;10.15;;
47555;SDS011;33291;46.222;26.460;2023-02-28T08:11:12;17.13;;;10.50;;
47555;SDS011;33291;46.222;26.460;2023-02-28T08:13:37;19.50;;;10.05;;
47555;SDS011;33291;46.222;26.460;2023-02-28T08:16:03;18.45;;;10.30;;
47555;SDS011;33291;46.222;26.460;2023-02-28T08:18:29;17.85;;;9.73;;
47555;SDS011;33291;46.222;26.460;2023-02-28T08:20:54;17.92;;;11.13;;
47555;SDS011;33291;46.222;26.460;2023-02-28T08:23:20;15.10;;;9.82;;
47555;SDS011;33291;46.222;26.460;2023-02-28T08:25:52;16.20;;;9.57;;
47555;SDS011;33291;46.222;26.460;2023-02-28T08:28:18;17.00;;;9.32;;
47555;SDS011;33291;46.222;26.460;2023-02-28T08:30:44;15.75;;;9.43;;
47555;SDS011;33291;46.222;26.460;2023-02-28T08:33:09;14.38;;;8.40;;
47555;SDS011;33291;46.222;26.460;2023-02-28T08:35:35;12.98;;;7.75;;
47555;SDS011;33291;46.222;26.460;2023-02-28T08:38:02;12.82;;;7.88;;
47555;SDS011;33291;46.222;26.460;2023-02-28T08:40:27;14.63;;;8.43;;
47555;SDS011;33291;46.222;26.460;2023-02-28T08:42:53;15.13;;;9.02;;
47555;SDS011;33291;46.222;26.460;2023-02-28T08:45:18;15.95;;;9.88;;
47555;SDS011;33291;46.222;26.460;2023-02-28T08:47:44;15.98;;;10.07;;
47555;SDS011;33291;46.222;26.460;2023-02-28T08:50:09;16.80;;;10.35;;
47555;SDS011;33291;46.222;26.460;2023-02-28T08:52:35;19.52;;;11.00;;
47555;SDS011;33291;46.222;26.460;2023-02-28T08:55:00;19.17;;;11.98;;
47555;SDS011;33291;46.222;26.460;2023-02-28T08:57:26;20.23;;;11.90;;
47555;SDS011;33291;46.222;26.460;2023-02-28T08:59:52;27.10;;;13.00;;
47555;SDS011;33291;46.222;26.460;2023-02-28T09:02:18;22.50;;;13.35;;
47555;SDS011;33291;46.222;26.460;2023-02-28T09:04:43;22.42;;;11.95;;
47555;SDS011;33291;46.222;26.460;2023-02-28T09:07:12;18.02;;;11.07;;
47555;SDS011;33291;46.222;26.460;2023-02-28T09:09:37;23.60;;;11.90;;
47555;SDS011;33291;46.222;26.460;2023-02-28T09:12:18;21.35;;;11.73;;
47555;SDS011;33291;46.222;26.460;2023-02-28T09:14:44;21.17;;;10.43;;
47555;SDS011;33291;46.222;26.460;2023-02-28T09:17:10;17.98;;;9.57;;
47555;SDS011;33291;46.222;26.460;2023-02-28T09:19:36;15.38;;;9.45;;
47555;SDS011;33291;46.222;26.460;2023-02-28T09:22:02;16.02;;;10.05;;
47555;SDS011;33291;46.222;26.460;2023-02-28T09:24:27;17.85;;;10.43;;
47555;SDS011;33291;46.222;26.460;2023-02-28T09:26:53;18.75;;;10.52;;
47555;SDS011;33291;46.222;26.460;2023-02-28T09:29:18;22.35;;;11.13;;
47555;SDS011;33291;46.222;26.460;2023-02-28T09:31:43;23.60;;;11.63;;
47555;SDS011;33291;46.222;26.460;2023-02-28T09:34:09;19.25;;;11.35;;
47555;SDS011;33291;46.222;26.460;2023-02-28T09:36:35;17.48;;;10.80;;
47555;SDS011;33291;46.222;26.460;2023-02-28T09:39:02;19.83;;;11.43;;
47555;SDS011;33291;46.222;26.460;2023-02-28T09:41:28;18.73;;;10.73;;
47555;SDS011;33291;46.222;26.460;2023-02-28T09:44:05;20.30;;;10.13;;
47555;SDS011;33291;46.222;26.460;2023-02-28T09:49:12;18.15;;;10.77;;
47555;SDS011;33291;46.222;26.460;2023-02-28T09:51:44;21.13;;;11.77;;
47555;SDS011;33291;46.222;26.460;2023-02-28T09:54:24;18.30;;;10.80;;
47555;SDS011;33291;46.222;26.460;2023-02-28T10:05:22;21.58;;;9.93;;
47555;SDS011;33291;46.222;26.460;2023-02-28T10:08:16;13.40;;;8.93;;
47555;SDS011;33291;46.222;26.460;2023-02-28T10:10:51;22.27;;;10.65;;
47555;SDS011;33291;46.222;26.460;2023-02-28T10:16:06;15.35;;;9.20;;
47555;SDS011;33291;46.222;26.460;2023-02-28T10:18:41;16.50;;;8.82;;
47555;SDS011;33291;46.222;26.460;2023-02-28T10:21:24;17.25;;;9.30;;
47555;SDS011;33291;46.222;26.460;2023-02-28T10:24:04;19.05;;;9.65;;
47555;SDS011;33291;46.222;26.460;2023-02-28T10:26:56;15.35;;;8.45;;
47555;SDS011;33291;46.222;26.460;2023-02-28T10:29:26;13.85;;;8.13;;
47555;SDS011;33291;46.222;26.460;2023-02-28T10:31:56;13.82;;;7.05;;
47555;SDS011;33291;46.222;26.460;2023-02-28T10:34:22;15.30;;;9.05;;
47555;SDS011;33291;46.222;26.460;2023-02-28T10:36:47;15.07;;;8.40;;
47555;SDS011;33291;46.222;26.460;2023-02-28T10:39:34;16.08;;;8.20;;
47555;SDS011;33291;46.222;26.460;2023-02-28T10:42:22;14.57;;;8.18;;
47555;SDS011;33291;46.222;26.460;2023-02-28T10:44:57;16.73;;;10.32;;
47555;SDS011;33291;46.222;26.460;2023-02-28T10:47:31;17.05;;;9.77;;
47555;SDS011;33291;46.222;26.460;2023-02-28T10:49:59;14.15;;;8.95;;
47555;SDS011;33291;46.222;26.460;2023-02-28T10:52:38;16.83;;;9.82;;
47555;SDS011;33291;46.222;26.460;2023-02-28T10:58:00;15.43;;;9.73;;
47555;SDS011;33291;46.222;26.460;2023-02-28T11:00:25;14.85;;;8.50;;
47555;SDS011;33291;46.222;26.460;2023-02-28T11:05:31;14.25;;;9.07;;
47555;SDS011;33291;46.222;26.460;2023-02-28T11:08:03;13.85;;;7.55;;
47555;SDS011;33291;46.222;26.460;2023-02-28T11:10:36;14.32;;;8.15;;
47555;SDS011;33291;46.222;26.460;2023-02-28T11:13:02;12.77;;;8.15;;
47555;SDS011;33291;46.222;26.460;2023-02-28T11:15:32;13.90;;;8.55;;
47555;SDS011;33291;46.222;26.460;2023-02-28T11:18:18;15.23;;;9.57;;
47555;SDS011;33291;46.222;26.460;2023-02-28T11:20:51;15.40;;;8.77;;
47555;SDS011;33291;46.222;26.460;2023-02-28T11:23:19;16.42;;;9.48;;
47555;SDS011;33291;46.222;26.460;2023-02-28T11:25:50;24.55;;;12.55;;
47555;SDS011;33291;46.222;26.460;2023-02-28T11:31:02;17.83;;;9.95;;
47555;SDS011;33291;46.222;26.460;2023-02-28T11:33:48;19.73;;;10.05;;
47555;SDS011;33291;46.222;26.460;2023-02-28T11:36:26;15.35;;;9.23;;
47555;SDS011;33291;46.222;26.460;2023-02-28T11:38:54;15.15;;;8.43;;
47555;SDS011;33291;46.222;26.460;2023-02-28T11:52:55;16.20;;;9.60;;
47555;SDS011;33291;46.222;26.460;2023-02-28T11:55:32;23.58;;;11.20;;
47555;SDS011;33291;46.222;26.460;2023-02-28T12:06:38;16.45;;;9.93;;
47555;SDS011;33291;46.222;26.460;2023-02-28T12:12:10;17.33;;;9.38;;
47555;SDS011;33291;46.222;26.460;2023-02-28T12:17:42;17.65;;;10.70;;
47555;SDS011;33291;46.222;26.460;2023-02-28T12:20:16;18.02;;;9.65;;
47555;SDS011;33291;46.222;26.460;2023-02-28T12:28:16;17.23;;;9.48;;
47555;SDS011;33291;46.222;26.460;2023-02-28T12:33:40;15.63;;;8.68;;
47555;SDS011;33291;46.222;26.460;2023-02-28T12:36:10;16.30;;;9.45;;
47555;SDS011;33291;46.222;26.460;2023-02-28T12:38:44;17.63;;;9.05;;
47555;SDS011;33291;46.222;26.460;2023-02-28T12:43:46;17.27;;;8.57;;
47555;SDS011;33291;46.222;26.460;2023-02-28T12:46:35;17.25;;;8.73;;
47555;SDS011;33291;46.222;26.460;2023-02-28T12:49:09;16.92;;;9.13;;
47555;SDS011;33291;46.222;26.460;2023-02-28T12:51:39;14.88;;;8.85;;
47555;SDS011;33291;46.222;26.460;2023-02-28T13:10:09;17.75;;;10.10;;
47555;SDS011;33291;46.222;26.460;2023-02-28T13:12:35;18.63;;;10.65;;
47555;SDS011;33291;46.222;26.460;2023-02-28T13:15:23;17.80;;;10.52;;
47555;SDS011;33291;46.222;26.460;2023-02-28T13:17:56;20.17;;;10.82;;
47555;SDS011;33291;46.222;26.460;2023-02-28T13:20:25;20.63;;;11.70;;
47555;SDS011;33291;46.222;26.460;2023-02-28T13:22:54;21.15;;;11.20;;
47555;SDS011;33291;46.222;26.460;2023-02-28T13:27:46;18.95;;;11.27;;
47555;SDS011;33291;46.222;26.460;2023-02-28T13:33:27;16.00;;;9.60;;
47555;SDS011;33291;46.222;26.460;2023-02-28T13:38:37;17.25;;;9.82;;
47555;SDS011;33291;46.222;26.460;2023-02-28T13:44:05;18.90;;;10.65;;
47555;SDS011;33291;46.222;26.460;2023-02-28T13:46:34;20.45;;;11.15;;
47555;SDS011;33291;46.222;26.460;2023-02-28T13:59:42;22.55;;;11.70;;
47555;SDS011;33291;46.222;26.460;2023-02-28T14:02:28;21.17;;;11.23;;
47555;SDS011;33291;46.222;26.460;2023-02-28T14:07:32;23.83;;;11.95;;
47555;SDS011;33291;46.222;26.460;2023-02-28T14:10:07;22.98;;;11.38;;
47555;SDS011;33291;46.222;26.460;2023-02-28T14:15:25;24.95;;;12.88;;
47555;SDS011;33291;46.222;26.460;2023-02-28T14:18:18;25.45;;;13.00;;
47555;SDS011;33291;46.222;26.460;2023-02-28T14:20:54;24.20;;;13.23;;
47555;SDS011;33291;46.222;26.460;2023-02-28T14:29:30;24.25;;;12.27;;
47555;SDS011;33291;46.222;26.460;2023-02-28T14:32:21;24.85;;;12.45;;
47555;SDS011;33291;46.222;26.460;2023-02-28T14:37:40;28.17;;;14.13;;
47555;SDS011;33291;46.222;26.460;2023-02-28T14:43:04;27.85;;;14.30;;
47555;SDS011;33291;46.222;26.460;2023-02-28T14:45:43;38.08;;;18.65;;
47555;SDS011;33291;46.222;26.460;2023-02-28T14:48:14;24.45;;;13.80;;
47555;SDS011;33291;46.222;26.460;2023-02-28T14:50:41;25.67;;;14.30;;
47555;SDS011;33291;46.222;26.460;2023-02-28T14:53:15;30.50;;;15.35;;
47555;SDS011;33291;46.222;26.460;2023-02-28T14:55:46;29.85;;;14.82;;
47555;SDS011;33291;46.222;26.460;2023-02-28T14:58:21;23.60;;;13.82;;
47555;SDS011;33291;46.222;26.460;2023-02-28T15:00:52;26.17;;;14.70;;
47555;SDS011;33291;46.222;26.460;2023-02-28T15:03:21;29.85;;;16.20;;
47555;SDS011;33291;46.222;26.460;2023-02-28T15:06:00;27.92;;;15.75;;
47555;SDS011;33291;46.222;26.460;2023-02-28T15:08:29;31.15;;;15.68;;
47555;SDS011;33291;46.222;26.460;2023-02-28T15:11:12;26.08;;;14.35;;
47555;SDS011;33291;46.222;26.460;2023-02-28T15:16:13;27.02;;;14.95;;
47555;SDS011;33291;46.222;26.460;2023-02-28T15:18:50;30.60;;;14.75;;
47555;SDS011;33291;46.222;26.460;2023-02-28T15:21:26;29.42;;;16.23;;
47555;SDS011;33291;46.222;26.460;2023-02-28T15:26:56;27.88;;;14.55;;
47555;SDS011;33291;46.222;26.460;2023-02-28T15:29:23;23.13;;;13.80;;
47555;SDS011;33291;46.222;26.460;2023-02-28T15:31:56;26.60;;;14.88;;
47555;SDS011;33291;46.222;26.460;2023-02-28T15:34:41;86.32;;;41.00;;
47555;SDS011;33291;46.222;26.460;2023-02-28T15:39:56;83.88;;;42.05;;
47555;SDS011;33291;46.222;26.460;2023-02-28T15:42:27;46.28;;;22.70;;
47555;SDS011;33291;46.222;26.460;2023-02-28T15:44:53;38.33;;;19.40;;
47555;SDS011;33291;46.222;26.460;2023-02-28T15:47:20;34.92;;;18.20;;
47555;SDS011;33291;46.222;26.460;2023-02-28T15:52:26;33.95;;;20.42;;
47555;SDS011;33291;46.222;26.460;2023-02-28T15:54:56;36.22;;;17.75;;
47555;SDS011;33291;46.222;26.460;2023-02-28T15:57:28;30.05;;;16.35;;
47555;SDS011;33291;46.222;26.460;2023-02-28T15:59:56;32.63;;;16.65;;
47555;SDS011;33291;46.222;26.460;2023-02-28T16:02:31;29.10;;;15.85;;
47555;SDS011;33291;46.222;26.460;2023-02-28T16:05:12;27.40;;;15.18;;
47555;SDS011;33291;46.222;26.460;2023-02-28T16:07:42;35.22;;;18.10;;
47555;SDS011;33291;46.222;26.460;2023-02-28T16:10:10;31.70;;;17.50;;
47555;SDS011;33291;46.222;26.460;2023-02-28T16:12:39;32.40;;;17.75;;
47555;SDS011;33291;46.222;26.460;2023-02-28T16:15:14;35.45;;;19.33;;
47555;SDS011;33291;46.222;26.460;2023-02-28T16:17:44;36.58;;;19.60;;
47555;SDS011;33291;46.222;26.460;2023-02-28T16:20:12;32.50;;;18.30;;
47555;SDS011;33291;46.222;26.460;2023-02-28T16:22:42;33.67;;;18.73;;
47555;SDS011;33291;46.222;26.460;2023-02-28T16:25:10;35.33;;;19.00;;
47555;SDS011;33291;46.222;26.460;2023-02-28T16:27:39;34.13;;;19.13;;
47555;SDS011;33291;46.222;26.460;2023-02-28T16:30:09;30.67;;;17.85;;
47555;SDS011;33291;46.222;26.460;2023-02-28T16:32:41;34.20;;;16.85;;
47555;SDS011;33291;46.222;26.460;2023-02-28T16:35:12;30.30;;;16.05;;
47555;SDS011;33291;46.222;26.460;2023-02-28T16:37:39;31.08;;;16.27;;
47555;SDS011;33291;46.222;26.460;2023-02-28T16:40:04;37.00;;;17.23;;
47555;SDS011;33291;46.222;26.460;2023-02-28T16:42:31;34.67;;;19.42;;
47555;SDS011;33291;46.222;26.460;2023-02-28T16:44:57;28.30;;;16.85;;
47555;SDS011;33291;46.222;26.460;2023-02-28T16:47:23;36.42;;;18.50;;
47555;SDS011;33291;46.222;26.460;2023-02-28T16:49:51;31.48;;;16.70;;
47555;SDS011;33291;46.222;26.460;2023-02-28T16:52:17;34.35;;;18.73;;
47555;SDS011;33291;46.222;26.460;2023-02-28T16:54:42;36.60;;;18.52;;
47555;SDS011;33291;46.222;26.460;2023-02-28T16:57:19;27.38;;;17.00;;
47555;SDS011;33291;46.222;26.460;2023-02-28T16:59:47;32.22;;;16.90;;
47555;SDS011;33291;46.222;26.460;2023-02-28T17:02:14;30.58;;;17.25;;
47555;SDS011;33291;46.222;26.460;2023-02-28T17:04:40;34.97;;;17.60;;
47555;SDS011;33291;46.222;26.460;2023-02-28T17:07:08;30.80;;;16.55;;
47555;SDS011;33291;46.222;26.460;2023-02-28T17:09:37;26.88;;;15.88;;
47555;SDS011;33291;46.222;26.460;2023-02-28T17:12:03;32.70;;;18.45;;
47555;SDS011;33291;46.222;26.460;2023-02-28T17:14:28;77.50;;;38.72;;
47555;SDS011;33291;46.222;26.460;2023-02-28T17:16:54;157.48;;;84.43;;